Antioch, California
Current Conditions -  °F | °C
As of 12:53 PM on Saturday 25 Oct 2014 (Local Time) from KCCR Reporting Station
Broken Clouds Broken Clouds  
Wind Chill: 20°   Ceiling: 2400
Heat Index: 20°   Visibility: 10mi
Dew Point: 12°   Wind: 13mph
Humidity: 61%   Direction: 230°SW
Pressure: 30.05"   Gusts: NA
Location:  38.02°N, 121.81°W
Report Text: KCCR 251953Z 23011KT 10SM BKN024 20/12 A3005 RMK AO2 SLP161 T02000122
Loading
Personal Weather Stations






























Interactive Weather Map
Tropical Storm Tracking
New forecast layout! Learn more

10-Day Weather Forecast

Advertisements
Track Severe Weather on mobile